NORTHEAST SUFFOLK  -  Rip Current Statement Rip Current Statement        NORTHERN NASSAU  -  Rip Current Statement Rip Current Statement        NORTHERN QUEENS  -  Rip Current Statement Rip Current Statement     Air Quality Alert Air Quality Alert        NORTHWEST SUFFOLK  -  Rip Current Statement Rip Current Statement        SOUTHEAST SUFFOLK  -  Rip Current Statement Rip Current Statement        SOUTHERN NASSAU  -  Rip Current Statement Rip Current Statement        SOUTHERN QUEENS  -  Rip Current Statement Rip Current Statement     Air Quality Alert Air Quality Alert        SOUTHWEST SUFFOLK  -  Rip Current Statement Rip Current Statement      

Active alerts

Northern Queens
  Details for Northern Queens Rip Current Statement  +1 additional alert
Southern Queens
  Details for Southern Queens Rip Current Statement  +1 additional alert
Northern Nassau
  Details for Northern Nassau Rip Current Statement
Southern Nassau
  Details for Southern Nassau Rip Current Statement
Northwest Suffolk
  Details for Northwest Suffolk Rip Current Statement
Southwest Suffolk
  Details for Southwest Suffolk Rip Current Statement
Northeast Suffolk
  Details for Northeast Suffolk Rip Current Statement
Southeast Suffolk
  Details for Southeast Suffolk Rip Current Statement


WXM80 ListenWXM80 Stop

You find our weather info also at:

UK Metoffice

WeatherCloud

Weather Underground

Northeastern Weather Network

AWEKAS

Citizen Weather Observer Program (CWOP)

HAMweather, WeatherForYou, PWS Weather


Weather Underground History page Text

Daily Summary for January 16, 2016 Units:  English    Metric   Both
« Previous Day
Next Day »
Daily Weekly Monthly Yearly Custom
  High: Low: Average:
Temperature: 50.0 °F 40.4 °F 44.1 °F
Dew Point: 43.6 °F 35.0 °F 40 °F
Humidity: 97 % 69 % 86 %
Wind Speed: 11.9 mph 0.0 mph 4.1 mph
Wind Gust: 15.0 mph - -
Wind:- - SW
Pressure: 29.73 in 29.32 in -
Precipitation: 0.26 in    
Historical Graphs
 
 
Tabular Data for January 16, 2016
Time Temperature Dew Point Pressure Wind Wind Speed Wind Gust Humidity Rainfall Rate (Hourly)
00:00 43.6 °F 42.5 °F 29.53 in East 5.8 mph 8.1 mph 96 % 0.00 in
00:05 43.5 °F 42.4 °F 29.53 in East 7.1 mph 8.1 mph 96 % 0.00 in
00:10 43.4 °F 42.3 °F 29.53 in ENE 6.1 mph 8.1 mph 96 % 0.00 in
00:15 43.4 °F 42.3 °F 29.52 in East 6.1 mph 8.1 mph 96 % 0.00 in
00:17 43.4 °F 42.3 °F 29.52 in ESE 6.1 mph 9.2 mph 96 % 0.00 in
00:22 43.5 °F 42.4 °F 29.52 in East 7.6 mph 10.4 mph 96 % 0.00 in
00:27 43.5 °F 42.4 °F 29.51 in East 6.8 mph 8.1 mph 96 % 0.00 in
00:32 43.5 °F 42.4 °F 29.50 in ENE 6.4 mph 8.1 mph 96 % 0.00 in
00:37 43.5 °F 42.4 °F 29.49 in East 6.8 mph 9.2 mph 96 % 0.00 in
00:43 43.5 °F 42.4 °F 29.49 in East 8.0 mph 12.7 mph 96 % 0.00 in
00:48 43.5 °F 42.4 °F 29.49 in ENE 9.0 mph 12.7 mph 96 % 0.00 in
00:53 43.4 °F 42.3 °F 29.49 in NE 7.2 mph 9.2 mph 96 % 0.00 in
00:58 43.3 °F 42.2 °F 29.48 in East 9.5 mph 15.0 mph 96 % 0.00 in
01:03 43.3 °F 42.2 °F 29.47 in ENE 10.8 mph 14.0 mph 96 % 0.00 in
01:08 43.2 °F 42.1 °F 29.48 in East 7.6 mph 12.7 mph 96 % 0.00 in
01:13 43.1 °F 42.0 °F 29.48 in ENE 7.3 mph 11.5 mph 96 % 0.00 in
01:18 43.0 °F 41.9 °F 29.47 in NE 11.9 mph 15.0 mph 96 % 0.00 in
01:23 42.7 °F 41.4 °F 29.47 in ENE 8.2 mph 15.0 mph 95 % 0.00 in
01:28 42.6 °F 41.3 °F 29.47 in East 1.7 mph 4.6 mph 95 % 0.00 in
01:34 42.5 °F 41.2 °F 29.46 in ENE 2.7 mph 5.8 mph 95 % 0.00 in
01:39 42.4 °F 41.1 °F 29.47 in East 6.4 mph 12.7 mph 95 % 0.00 in
01:49 42.1 °F 40.8 °F 29.47 in NE 7.2 mph 10.4 mph 95 % 0.00 in
01:54 41.9 °F 40.6 °F 29.46 in ENE 10.0 mph 13.0 mph 95 % 0.00 in
01:59 41.8 °F 40.5 °F 29.46 in ENE 5.5 mph 10.4 mph 95 % 0.00 in
02:04 41.7 °F 40.4 °F 29.45 in NE 3.4 mph 8.1 mph 95 % 0.01 in
02:09 41.6 °F 40.3 °F 29.45 in ENE 2.3 mph 8.1 mph 95 % 0.01 in
02:14 41.5 °F 40.2 °F 29.44 in ENE 5.8 mph 6.9 mph 95 % 0.01 in
02:19 41.5 °F 40.2 °F 29.43 in ENE 8.4 mph 10.4 mph 95 % 0.01 in
02:25 41.5 °F 40.2 °F 29.43 in ENE 5.1 mph 8.1 mph 95 % 0.02 in
02:30 41.5 °F 40.2 °F 29.43 in ENE 7.0 mph 9.2 mph 95 % 0.02 in
02:35 41.5 °F 40.2 °F 29.43 in ENE 5.0 mph 9.2 mph 95 % 0.02 in
02:40 41.4 °F 40.1 °F 29.43 in ENE 5.7 mph 9.2 mph 95 % 0.02 in
02:45 41.3 °F 40.0 °F 29.42 in ENE 7.5 mph 10.4 mph 95 % 0.02 in
02:50 41.3 °F 40.0 °F 29.41 in East 4.0 mph 7.0 mph 95 % 0.02 in
02:55 41.3 °F 40.0 °F 29.41 in NE 5.4 mph 9.2 mph 95 % 0.03 in
03:00 41.2 °F 39.9 °F 29.40 in ENE 3.7 mph 5.8 mph 95 % 0.04 in
03:05 41.2 °F 39.9 °F 29.40 in ENE 2.8 mph 4.0 mph 95 % 0.03 in
03:10 41.2 °F 39.9 °F 29.39 in East 6.6 mph 9.2 mph 95 % 0.04 in
03:16 41.2 °F 39.9 °F 29.38 in NE 3.4 mph 6.9 mph 95 % 0.05 in
03:21 41.2 °F 39.9 °F 29.38 in NNE 4.5 mph 8.1 mph 95 % 0.06 in
03:26 41.2 °F 39.9 °F 29.37 in NNE 4.3 mph 10.4 mph 95 % 0.06 in
03:36 41.2 °F 40.1 °F 29.37 in NE 5.8 mph 6.9 mph 96 % 0.07 in
03:41 41.2 °F 40.1 °F 29.37 in NNE 4.2 mph 6.9 mph 96 % 0.08 in
03:46 41.2 °F 40.1 °F 29.36 in NNE 4.7 mph 6.9 mph 96 % 0.09 in
03:51 41.3 °F 40.2 °F 29.36 in NNE 6.7 mph 10.4 mph 96 % 0.08 in
03:56 41.3 °F 40.2 °F 29.36 in NNE 5.1 mph 8.1 mph 96 % 0.09 in
04:01 41.2 °F 40.1 °F 29.36 in NE 4.7 mph 10.4 mph 96 % 0.09 in
04:07 41.3 °F 40.2 °F 29.35 in North 3.8 mph 5.8 mph 96 % 0.10 in
04:12 41.3 °F 40.2 °F 29.35 in NNE 2.5 mph 4.6 mph 96 % 0.11 in
04:17 41.3 °F 40.2 °F 29.35 in NNE 4.4 mph 6.9 mph 96 % 0.11 in
04:22 41.3 °F 40.2 °F 29.34 in North 4.0 mph 5.8 mph 96 % 0.11 in
04:27 41.3 °F 40.2 °F 29.34 in NNE 4.4 mph 5.8 mph 96 % 0.11 in
04:32 41.2 °F 40.1 °F 29.33 in North 4.6 mph 6.9 mph 96 % 0.13 in
04:37 41.2 °F 40.1 °F 29.33 in NNW 5.0 mph 7.0 mph 96 % 0.13 in
04:42 41.1 °F 40.0 °F 29.33 in NNW 5.2 mph 8.1 mph 96 % 0.12 in
04:47 40.9 °F 39.8 °F 29.32 in NNW 6.2 mph 11.5 mph 96 % 0.12 in
04:52 40.7 °F 39.6 °F 29.32 in NNE 4.0 mph 9.2 mph 96 % 0.11 in
04:58 40.7 °F 39.6 °F 29.32 in NNE 4.3 mph 11.5 mph 96 % 0.11 in
05:03 40.6 °F 39.5 °F 29.33 in NNE 6.9 mph 11.5 mph 96 % 0.10 in
05:08 40.6 °F 39.5 °F 29.33 in North 6.9 mph 11.5 mph 96 % 0.10 in
05:13 40.6 °F 39.5 °F 29.33 in NNE 6.2 mph 11.5 mph 96 % 0.08 in
05:18 40.6 °F 39.5 °F 29.32 in NE 7.5 mph 13.8 mph 96 % 0.07 in
05:23 40.6 °F 39.5 °F 29.32 in NW 7.0 mph 11.5 mph 96 % 0.06 in
05:28 40.5 °F 39.4 °F 29.32 in NNW 6.8 mph 11.5 mph 96 % 0.04 in
05:33 40.5 °F 39.4 °F 29.32 in NNW 6.2 mph 10.4 mph 96 % 0.03 in
05:38 40.5 °F 39.4 °F 29.32 in NE 7.2 mph 8.1 mph 96 % 0.02 in
05:44 40.5 °F 39.4 °F 29.32 in NNW 6.8 mph 9.2 mph 96 % 0.02 in
05:49 40.5 °F 39.4 °F 29.32 in NNE 7.9 mph 12.7 mph 96 % 0.01 in
05:59 40.4 °F 39.4 °F 29.32 in North 2.9 mph 6.9 mph 96 % 0.00 in
06:04 40.4 °F 39.4 °F 29.33 in NNE 6.9 mph 10.4 mph 96 % 0.00 in
06:09 40.4 °F 39.4 °F 29.33 in NNE 8.0 mph 10.0 mph 96 % 0.00 in
06:14 40.5 °F 39.4 °F 29.33 in North 6.7 mph 11.5 mph 96 % 0.00 in
06:19 40.5 °F 39.4 °F 29.32 in NNE 5.3 mph 9.2 mph 96 % 0.00 in
06:24 40.6 °F 39.5 °F 29.32 in NE 5.8 mph 9.2 mph 96 % 0.00 in
06:29 40.7 °F 39.6 °F 29.32 in NNE 4.0 mph 10.4 mph 96 % 0.01 in
06:35 40.8 °F 39.7 °F 29.32 in NE 4.7 mph 6.9 mph 96 % 0.01 in
06:40 40.9 °F 39.8 °F 29.32 in North 5.0 mph 9.2 mph 96 % 0.01 in
06:45 41.0 °F 39.9 °F 29.33 in NE 4.0 mph 8.1 mph 96 % 0.01 in
06:50 41.0 °F 40.2 °F 29.32 in North 4.3 mph 9.2 mph 97 % 0.01 in
06:55 41.1 °F 40.3 °F 29.33 in NE 4.6 mph 8.1 mph 97 % 0.01 in
07:00 41.1 °F 40.3 °F 29.33 in NE 2.5 mph 5.8 mph 97 % 0.01 in
07:05 41.2 °F 40.4 °F 29.34 in North 3.4 mph 5.8 mph 97 % 0.01 in
07:10 41.3 °F 40.5 °F 29.35 in NNW 3.8 mph 4.6 mph 97 % 0.01 in
07:15 41.4 °F 40.3 °F 29.36 in North 1.8 mph 3.5 mph 96 % 0.01 in
07:20 41.5 °F 40.4 °F 29.35 in NNW 2.6 mph 6.9 mph 96 % 0.01 in
07:26 41.5 °F 40.4 °F 29.36 in WNW 4.3 mph 8.0 mph 96 % 0.01 in
07:31 41.6 °F 40.8 °F 29.36 in WNW 2.4 mph 5.0 mph 97 % 0.00 in
07:36 41.7 °F 40.9 °F 29.36 in North 2.1 mph 3.5 mph 97 % 0.00 in
07:41 41.8 °F 41.0 °F 29.36 in WNW 0.6 mph 3.5 mph 97 % 0.00 in
07:46 41.8 °F 41.0 °F 29.35 in NW 1.5 mph 4.6 mph 97 % 0.00 in
07:51 41.9 °F 41.1 °F 29.36 in NW 2.8 mph 6.0 mph 97 % 0.00 in
07:56 42.0 °F 41.2 °F 29.37 in WNW 2.9 mph 5.8 mph 97 % 0.00 in
08:01 42.1 °F 41.3 °F 29.37 in North 1.7 mph 5.8 mph 97 % 0.00 in
08:06 42.2 °F 41.4 °F 29.38 in WNW 4.4 mph 7.0 mph 97 % 0.00 in
08:11 42.4 °F 41.6 °F 29.38 in West 3.0 mph 8.1 mph 97 % 0.00 in
08:17 42.4 °F 41.6 °F 29.39 in NW 2.4 mph 9.0 mph 97 % 0.00 in
08:22 42.4 °F 41.6 °F 29.39 in WNW 3.8 mph 11.5 mph 97 % 0.00 in
08:27 42.4 °F 41.6 °F 29.40 in WNW 4.6 mph 6.9 mph 97 % 0.00 in
08:32 42.4 °F 41.3 °F 29.41 in NW 5.2 mph 9.2 mph 96 % 0.00 in
08:37 42.3 °F 41.2 °F 29.41 in WNW 4.5 mph 6.9 mph 96 % 0.00 in
08:42 42.3 °F 41.2 °F 29.42 in WSW 3.2 mph 6.9 mph 96 % 0.00 in
08:47 42.3 °F 41.2 °F 29.42 in NW 4.7 mph 8.1 mph 96 % 0.00 in
08:52 42.4 °F 41.3 °F 29.42 in WNW 4.1 mph 6.9 mph 96 % 0.00 in
08:57 42.4 °F 41.3 °F 29.43 in North 1.8 mph 8.1 mph 96 % 0.00 in
09:02 42.5 °F 41.4 °F 29.43 in NW 6.9 mph 9.2 mph 96 % 0.00 in
09:08 42.5 °F 41.4 °F 29.43 in West 3.7 mph 5.8 mph 96 % 0.00 in
09:13 42.6 °F 41.5 °F 29.43 in NNW 3.1 mph 5.0 mph 96 % 0.01 in
09:18 42.6 °F 41.5 °F 29.44 in WNW 3.7 mph 4.6 mph 96 % 0.01 in
09:23 42.7 °F 41.6 °F 29.44 in WNW 3.6 mph 8.0 mph 96 % 0.01 in
09:28 42.6 °F 41.5 °F 29.45 in WNW 2.3 mph 5.0 mph 96 % 0.01 in
09:33 42.6 °F 41.5 °F 29.45 in West 3.0 mph 8.1 mph 96 % 0.01 in
09:38 42.6 °F 41.5 °F 29.46 in West 2.8 mph 8.1 mph 96 % 0.01 in
09:43 42.6 °F 41.5 °F 29.46 in West 1.2 mph 4.6 mph 96 % 0.01 in
09:53 42.5 °F 41.4 °F 29.47 in WSW 3.6 mph 5.0 mph 96 % 0.01 in
09:59 42.5 °F 41.4 °F 29.47 in NW 1.7 mph 9.2 mph 96 % 0.01 in
10:04 42.5 °F 41.4 °F 29.47 in WSW 3.1 mph 4.6 mph 96 % 0.01 in
10:09 42.5 °F 41.4 °F 29.47 in SW 2.4 mph 4.6 mph 96 % 0.00 in
10:14 42.6 °F 41.5 °F 29.47 in West 0.7 mph 3.5 mph 96 % 0.00 in
10:19 42.7 °F 41.6 °F 29.47 in NW 2.8 mph 5.8 mph 96 % 0.00 in
10:24 42.9 °F 41.8 °F 29.47 in WNW 4.4 mph 8.1 mph 96 % 0.00 in
10:29 43.2 °F 42.1 °F 29.47 in WNW 0.7 mph 3.5 mph 96 % 0.00 in
10:34 43.3 °F 42.2 °F 29.47 in WNW 2.4 mph 5.0 mph 96 % 0.00 in
10:39 43.4 °F 42.3 °F 29.47 in WNW 2.1 mph 5.0 mph 96 % 0.00 in
10:44 43.5 °F 42.4 °F 29.47 in West 5.3 mph 9.0 mph 96 % 0.00 in
10:50 43.6 °F 42.3 °F 29.47 in WNW 4.0 mph 8.1 mph 95 % 0.00 in
10:55 43.6 °F 42.3 °F 29.47 in West 2.7 mph 4.6 mph 95 % 0.00 in
11:00 43.6 °F 42.0 °F 29.46 in WNW 0.5 mph 5.8 mph 94 % 0.00 in
11:05 43.6 °F 42.3 °F 29.46 in NW 1.2 mph 3.5 mph 95 % 0.00 in
11:10 43.8 °F 42.5 °F 29.46 in NNW 1.8 mph 3.5 mph 95 % 0.00 in
11:15 44.0 °F 42.7 °F 29.46 in NNW 1.0 mph 3.5 mph 95 % 0.00 in
11:20 44.3 °F 43.0 °F 29.46 in West 1.2 mph 3.5 mph 95 % 0.00 in
11:25 44.4 °F 43.1 °F 29.46 in NW 2.0 mph 3.5 mph 95 % 0.00 in
11:30 44.5 °F 42.9 °F 29.46 in West 1.6 mph 4.6 mph 94 % 0.00 in
11:35 44.6 °F 43.0 °F 29.46 in WSW 2.0 mph 3.5 mph 94 % 0.00 in
11:41 44.6 °F 42.7 °F 29.46 in West 2.1 mph 4.6 mph 93 % 0.00 in
11:46 44.7 °F 42.8 °F 29.45 in WSW 4.8 mph 6.9 mph 93 % 0.00 in
11:56 44.9 °F 42.7 °F 29.46 in West 3.8 mph 8.1 mph 92 % 0.00 in
12:01 45.0 °F 42.5 °F 29.46 in WSW 5.7 mph 11.5 mph 91 % 0.00 in
12:06 45.0 °F 42.2 °F 29.46 in SW 4.9 mph 11.5 mph 90 % 0.00 in
12:11 45.1 °F 42.1 °F 29.46 in WSW 8.6 mph 11.5 mph 89 % 0.00 in
12:16 45.2 °F 42.2 °F 29.46 in West 2.1 mph 8.1 mph 89 % 0.00 in
12:21 45.4 °F 42.6 °F 29.45 in SW 6.4 mph 10.4 mph 90 % 0.00 in
12:26 45.6 °F 42.5 °F 29.45 in SW 3.8 mph 9.0 mph 89 % 0.00 in
12:32 45.8 °F 42.7 °F 29.45 in WSW 4.1 mph 10.4 mph 89 % 0.00 in
12:37 46.2 °F 43.1 °F 29.45 in NW 4.6 mph 8.1 mph 89 % 0.00 in
12:42 46.5 °F 43.1 °F 29.45 in West 2.9 mph 6.9 mph 88 % 0.00 in
12:47 46.7 °F 43.3 °F 29.45 in West 3.9 mph 5.8 mph 88 % 0.00 in
12:52 46.9 °F 43.2 °F 29.46 in SW 5.4 mph 10.4 mph 87 % 0.00 in
12:57 47.2 °F 43.5 °F 29.47 in SW 3.7 mph 5.0 mph 87 % 0.00 in
13:02 47.6 °F 43.6 °F 29.47 in WSW 5.7 mph 10.4 mph 86 % 0.00 in
13:07 47.7 °F 43.4 °F 29.47 in WSW 7.0 mph 9.2 mph 85 % 0.00 in
13:17 47.9 °F 43.3 °F 29.47 in West 3.0 mph 8.1 mph 84 % 0.00 in
13:23 48.0 °F 43.4 °F 29.47 in WSW 4.7 mph 11.0 mph 84 % 0.00 in
13:28 48.2 °F 43.3 °F 29.47 in WSW 5.0 mph 9.2 mph 83 % 0.00 in
13:33 48.4 °F 43.5 °F 29.48 in WSW 4.3 mph 9.2 mph 83 % 0.00 in
13:38 48.6 °F 43.4 °F 29.48 in WSW 1.4 mph 3.0 mph 82 % 0.00 in
13:43 48.8 °F 43.2 °F 29.48 in WSW 4.7 mph 10.4 mph 81 % 0.00 in
13:48 49.0 °F 43.1 °F 29.48 in WSW 7.0 mph 10.4 mph 80 % 0.00 in
13:53 49.2 °F 43.0 °F 29.49 in SW 8.6 mph 12.7 mph 79 % 0.00 in
13:58 49.4 °F 43.2 °F 29.49 in West 5.5 mph 9.2 mph 79 % 0.00 in
14:03 49.5 °F 42.9 °F 29.49 in SW 5.1 mph 13.8 mph 78 % 0.00 in
14:08 49.6 °F 43.0 °F 29.49 in NW 5.5 mph 9.2 mph 78 % 0.00 in
14:14 49.7 °F 42.8 °F 29.49 in WNW 5.5 mph 15.0 mph 77 % 0.00 in
14:19 49.9 °F 43.0 °F 29.50 in SSW 4.1 mph 10.4 mph 77 % 0.00 in
14:24 50.0 °F 42.4 °F 29.50 in West 5.7 mph 9.2 mph 75 % 0.00 in
14:29 49.9 °F 42.3 °F 29.50 in West 1.1 mph 3.5 mph 75 % 0.00 in
14:34 49.9 °F 42.3 °F 29.50 in NW 5.9 mph 9.2 mph 75 % 0.00 in
14:39 49.9 °F 42.3 °F 29.50 in West 3.3 mph 5.0 mph 75 % 0.00 in
14:44 49.9 °F 41.9 °F 29.51 in NW 6.3 mph 10.4 mph 74 % 0.00 in
14:49 50.0 °F 42.4 °F 29.50 in NW 1.6 mph 6.9 mph 75 % 0.00 in
14:54 49.9 °F 42.3 °F 29.51 in West 4.7 mph 8.0 mph 75 % 0.00 in
14:59 49.6 °F 41.7 °F 29.51 in NW 3.1 mph 9.0 mph 74 % 0.00 in
15:05 49.3 °F 41.4 °F 29.51 in NNW 2.4 mph 9.2 mph 74 % 0.00 in
15:10 49.0 °F 41.4 °F 29.51 in NNW 4.1 mph 7.0 mph 75 % 0.00 in
15:15 48.7 °F 41.1 °F 29.51 in NNW 2.4 mph 6.9 mph 75 % 0.00 in
15:20 48.5 °F 40.9 °F 29.52 in West 1.9 mph 3.5 mph 75 % 0.00 in
15:25 48.3 °F 41.1 °F 29.52 in WNW 3.8 mph 8.1 mph 76 % 0.00 in
15:30 48.2 °F 41.3 °F 29.52 in NW 2.3 mph 4.0 mph 77 % 0.00 in
15:35 48.1 °F 41.2 °F 29.53 in WNW 3.1 mph 6.0 mph 77 % 0.00 in
15:40 48.0 °F 41.1 °F 29.53 in WSW 2.9 mph 4.6 mph 77 % 0.00 in
15:45 48.0 °F 41.1 °F 29.53 in West 2.4 mph 5.0 mph 77 % 0.00 in
15:50 47.9 °F 40.7 °F 29.54 in WNW 4.0 mph 4.6 mph 76 % 0.00 in
15:56 47.9 °F 40.4 °F 29.55 in West 1.6 mph 6.9 mph 75 % 0.00 in
16:01 47.9 °F 40.4 °F 29.55 in WSW 2.1 mph 4.6 mph 75 % 0.00 in
16:06 47.9 °F 40.4 °F 29.56 in WSW 0.7 mph 2.3 mph 75 % 0.00 in
16:11 47.9 °F 40.4 °F 29.56 in WSW 2.8 mph 5.8 mph 75 % 0.00 in
16:16 47.9 °F 40.4 °F 29.56 in WSW 2.4 mph 4.0 mph 75 % 0.00 in
16:21 47.9 °F 40.7 °F 29.57 in WSW 1.2 mph 2.3 mph 76 % 0.00 in
16:26 47.8 °F 40.3 °F 29.57 in West 0.6 mph 2.3 mph 75 % 0.00 in
16:31 47.8 °F 40.3 °F 29.57 in West 1.2 mph 3.5 mph 75 % 0.00 in
16:36 47.8 °F 40.3 °F 29.57 in West 1.7 mph 3.5 mph 75 % 0.00 in
16:41 47.8 °F 40.3 °F 29.57 in WNW 0.3 mph 2.3 mph 75 % 0.00 in
16:47 47.8 °F 40.3 °F 29.58 in Calm     75 % 0.00 in
16:52 47.8 °F 40.3 °F 29.58 in West 2.2 mph 8.1 mph 75 % 0.00 in
16:57 47.7 °F 40.2 °F 29.58 in WSW 3.5 mph 4.6 mph 75 % 0.00 in
17:02 47.7 °F 39.8 °F 29.59 in WSW 3.9 mph 8.1 mph 74 % 0.00 in
17:07 47.7 °F 39.8 °F 29.59 in West 2.4 mph 4.6 mph 74 % 0.00 in
17:12 47.7 °F 39.8 °F 29.59 in WNW 8.1 mph 11.5 mph 74 % 0.00 in
17:17 47.7 °F 40.2 °F 29.59 in WNW 5.6 mph 10.4 mph 75 % 0.00 in
17:22 47.6 °F 40.4 °F 29.60 in West 3.8 mph 11.5 mph 76 % 0.00 in
17:27 47.5 °F 41.0 °F 29.60 in NW 3.8 mph 9.2 mph 78 % 0.00 in
17:32 47.3 °F 40.8 °F 29.61 in WNW 5.3 mph 9.2 mph 78 % 0.00 in
17:38 47.1 °F 40.9 °F 29.61 in WSW 3.2 mph 9.2 mph 79 % 0.00 in
17:43 46.8 °F 40.0 °F 29.61 in West 2.0 mph 9.2 mph 77 % 0.00 in
17:48 46.6 °F 39.8 °F 29.61 in WSW 2.1 mph 8.1 mph 77 % 0.00 in
17:53 46.4 °F 39.6 °F 29.61 in SW 2.8 mph 5.0 mph 77 % 0.00 in
17:58 46.2 °F 40.0 °F 29.62 in West 5.3 mph 9.2 mph 79 % 0.00 in
18:03 46.0 °F 39.9 °F 29.62 in SW 6.5 mph 11.5 mph 79 % 0.00 in
18:08 45.9 °F 39.4 °F 29.63 in SW 5.1 mph 8.1 mph 78 % 0.00 in
18:24 45.7 °F 38.6 °F 29.64 in SW 5.1 mph 9.2 mph 76 % 0.00 in
18:29 45.6 °F 38.1 °F 29.64 in WNW 4.0 mph 8.1 mph 75 % 0.00 in
18:39 45.6 °F 37.8 °F 29.64 in WSW 4.8 mph 9.2 mph 74 % 0.00 in
18:44 45.5 °F 38.0 °F 29.65 in SW 1.6 mph 6.0 mph 75 % 0.00 in
18:49 45.5 °F 38.0 °F 29.65 in SW 2.3 mph 7.0 mph 75 % 0.00 in
18:54 45.5 °F 38.4 °F 29.66 in West 1.4 mph 4.0 mph 76 % 0.00 in
18:59 45.4 °F 38.3 °F 29.66 in WSW 1.2 mph 3.5 mph 76 % 0.00 in
19:04 45.4 °F 38.3 °F 29.67 in WSW 3.9 mph 6.0 mph 76 % 0.00 in
19:09 45.3 °F 38.2 °F 29.67 in West 2.2 mph 6.9 mph 76 % 0.00 in
19:15 45.2 °F 38.1 °F 29.67 in West 0.3 mph 3.5 mph 76 % 0.00 in
19:20 45.2 °F 37.7 °F 29.67 in West 2.3 mph 6.9 mph 75 % 0.00 in
19:25 45.2 °F 37.7 °F 29.67 in West 3.2 mph 5.8 mph 75 % 0.00 in
19:35 45.2 °F 37.4 °F 29.67 in SW 3.2 mph 5.8 mph 74 % 0.00 in
19:40 45.1 °F 37.3 °F 29.68 in WSW 1.9 mph 4.6 mph 74 % 0.00 in
19:45 45.1 °F 37.3 °F 29.68 in WNW 2.5 mph 5.0 mph 74 % 0.00 in
19:50 45.1 °F 37.3 °F 29.68 in WNW 1.5 mph 7.0 mph 74 % 0.00 in
19:55 45.0 °F 36.9 °F 29.68 in WSW 4.7 mph 6.0 mph 73 % 0.00 in
20:00 44.9 °F 36.8 °F 29.68 in West 5.0 mph 8.1 mph 73 % 0.00 in
20:06 44.9 °F 36.4 °F 29.68 in West 6.1 mph 10.4 mph 72 % 0.00 in
20:11 44.9 °F 36.4 °F 29.68 in WNW 6.1 mph 9.2 mph 72 % 0.00 in
20:16 44.8 °F 36.3 °F 29.68 in WNW 3.8 mph 6.9 mph 72 % 0.00 in
20:21 44.8 °F 36.3 °F 29.68 in WNW 3.2 mph 5.8 mph 72 % 0.00 in
20:26 44.7 °F 35.9 °F 29.68 in WSW 3.5 mph 8.0 mph 71 % 0.00 in
20:31 44.7 °F 35.9 °F 29.69 in West 1.4 mph 3.5 mph 71 % 0.00 in
20:36 44.6 °F 35.8 °F 29.69 in WNW 3.2 mph 5.8 mph 71 % 0.00 in
20:41 44.6 °F 35.4 °F 29.69 in WSW 3.7 mph 6.0 mph 70 % 0.00 in
20:46 44.5 °F 35.3 °F 29.69 in WSW 3.4 mph 5.8 mph 70 % 0.00 in
20:51 44.5 °F 35.3 °F 29.70 in WNW 1.9 mph 3.5 mph 70 % 0.00 in
20:57 44.5 °F 35.3 °F 29.69 in WNW 3.5 mph 5.8 mph 70 % 0.00 in
21:02 44.5 °F 35.3 °F 29.69 in SW 2.8 mph 5.0 mph 70 % 0.00 in
21:07 44.5 °F 35.0 °F 29.70 in WNW 3.2 mph 8.1 mph 69 % 0.00 in
21:12 44.5 °F 35.3 °F 29.70 in West 4.6 mph 6.9 mph 70 % 0.00 in
21:17 44.5 °F 35.3 °F 29.70 in WSW 2.3 mph 4.6 mph 70 % 0.00 in
21:22 44.4 °F 35.6 °F 29.70 in WSW 2.0 mph 3.5 mph 71 % 0.00 in
21:27 44.4 °F 35.9 °F 29.71 in SSW 1.5 mph 3.5 mph 72 % 0.00 in
21:32 44.3 °F 35.8 °F 29.71 in WSW 1.4 mph 6.9 mph 72 % 0.00 in
21:37 44.2 °F 35.7 °F 29.71 in SW 4.8 mph 5.8 mph 72 % 0.00 in
21:42 44.1 °F 36.0 °F 29.71 in SW 3.2 mph 9.2 mph 73 % 0.00 in
21:48 44.0 °F 35.9 °F 29.71 in SW 4.0 mph 5.8 mph 73 % 0.00 in
21:53 44.0 °F 35.9 °F 29.71 in WSW 4.8 mph 8.1 mph 73 % 0.00 in
21:58 44.0 °F 35.9 °F 29.71 in SW 1.8 mph 4.0 mph 73 % 0.00 in
22:03 44.0 °F 35.9 °F 29.71 in WSW 3.2 mph 6.9 mph 73 % 0.00 in
22:08 44.0 °F 35.9 °F 29.71 in SW 1.5 mph 3.5 mph 73 % 0.00 in
22:13 43.9 °F 35.8 °F 29.71 in WSW 6.0 mph 10.0 mph 73 % 0.00 in
22:18 43.8 °F 35.7 °F 29.71 in SW 4.1 mph 8.1 mph 73 % 0.00 in
22:23 43.8 °F 35.7 °F 29.71 in West 2.5 mph 6.9 mph 73 % 0.00 in
22:28 43.7 °F 35.6 °F 29.71 in WSW 4.1 mph 4.6 mph 73 % 0.00 in
22:33 43.7 °F 35.6 °F 29.71 in WSW 1.8 mph 5.0 mph 73 % 0.00 in
22:39 43.7 °F 35.6 °F 29.72 in SW 2.4 mph 4.0 mph 73 % 0.00 in
22:44 43.6 °F 35.9 °F 29.72 in WSW 3.9 mph 8.1 mph 74 % 0.00 in
22:49 43.6 °F 36.2 °F 29.72 in WSW 2.8 mph 6.9 mph 75 % 0.00 in
22:59 43.4 °F 36.0 °F 29.71 in SW 2.9 mph 5.8 mph 75 % 0.00 in
23:04 43.3 °F 35.9 °F 29.72 in WNW 2.1 mph 3.5 mph 75 % 0.00 in
23:09 43.3 °F 35.9 °F 29.72 in WSW 2.9 mph 3.5 mph 75 % 0.00 in
23:14 43.2 °F 35.8 °F 29.72 in West 4.2 mph 6.9 mph 75 % 0.00 in
23:19 43.1 °F 35.4 °F 29.71 in West 4.8 mph 9.2 mph 74 % 0.00 in
23:24 43.1 °F 35.4 °F 29.72 in West 5.0 mph 11.5 mph 74 % 0.00 in
23:30 43.0 °F 35.3 °F 29.72 in West 4.5 mph 6.9 mph 74 % 0.00 in
23:35 42.9 °F 35.2 °F 29.73 in SW 7.0 mph 9.0 mph 74 % 0.00 in
23:40 42.8 °F 35.1 °F 29.73 in West 5.2 mph 9.2 mph 74 % 0.00 in
23:45 42.8 °F 35.4 °F 29.73 in West 3.0 mph 4.6 mph 75 % 0.00 in
23:50 42.7 °F 35.3 °F 29.73 in West 4.6 mph 6.9 mph 75 % 0.00 in
23:55 42.6 °F 35.6 °F 29.73 in WSW 1.8 mph 3.5 mph 76 % 0.00 in
Crab Meadow Weather
Compliments of Weather Underground - 3 mb

Script developed by  Jim McMurry - jmcmurry@mwt.net Adapted for the template by  Wim van der Kuil - Leuven-Template.eu

Astronomy: Our moon is moving away from the earth at about 3cm per year.